LFPG/CDG METAR and TAF weather

Enter ICAO airport designator
Station Type Date Time Source
LFPG METAR 2019/12/08 03:30 UTC NOAA

LFPG 080330Z 22019KT 9999 BKN020 11/07 Q1011 BECMG BKN010


Station Type Date Time Source
LFPG Decoded METAR 2019/12/08 03:30 UTC NOAA

Paris-Aeroport Charles De Gaulle, France (LFPG) 49-01N 002-32E 109M
Dec 07, 2019 - 10:30 PM EST / 2019.12.08 0330 UTC
Wind: from the SW (220 degrees) at 22 MPH (19 KT):0
Visibility: greater than 7 mile(s):0
Sky conditions: mostly cloudy
Temperature: 51 F (11 C)
Dew Point: 44 F (7 C)
Relative Humidity: 76%
Pressure (altimeter): 29.85 in. Hg (1011 hPa)
ob: LFPG 080330Z 22019KT 9999 BKN020 11/07 Q1011 BECMG BKN010
cycle: 3

Station Type Date Time Source
LFPG TAF 2019/12/07 18:21 UTC NOAA

TAF LFPG 071700Z 0718/0824 22010KT 9999 BKN030 TX12/0812Z TN07/0723Z
TEMPO 0720/0812 BKN010
BECMG 0803/0805 21015G25KT
TEMPO 0807/0811 3500 RA
BECMG 0813/0815 CAVOK
TEMPO 0819/0822 25020G40KT 3000 SHRA SCT018TCU

Example: see airport list